createdAt,value
2019-03-20T00:03:28.930Z,102815.08
2019-03-20T00:08:23.265Z,102823.32
2019-03-20T00:13:17.330Z,102823.34
2019-03-20T00:18:11.303Z,102823.65
2019-03-20T00:23:05.260Z,102813.14
2019-03-20T00:27:59.225Z,102827.55
2019-03-20T00:32:53.257Z,102815.38
2019-03-20T00:37:47.222Z,102822.02
2019-03-20T00:42:41.422Z,102826.81
2019-03-20T00:47:35.375Z,102831.16
2019-03-20T00:52:29.436Z,102826.55
2019-03-20T00:57:23.407Z,102833.70
2019-03-20T01:02:17.480Z,102832.85
2019-03-20T01:07:11.551Z,102824.39
2019-03-20T01:12:05.552Z,102826.03
2019-03-20T01:16:59.510Z,102829.50
2019-03-20T01:21:53.573Z,102836.41
2019-03-20T01:26:47.533Z,102833.00
2019-03-20T01:31:41.638Z,102833.45
2019-03-20T01:36:35.744Z,102835.74
2019-03-20T01:41:37.584Z,102833.78
2019-03-20T01:46:25.653Z,102820.30
2019-03-20T01:51:20.518Z,102815.91
2019-03-20T01:56:14.486Z,102822.03
2019-03-20T02:01:08.544Z,102817.81
2019-03-20T02:06:02.632Z,102824.95
2019-03-20T02:10:56.589Z,102827.59
2019-03-20T02:15:50.559Z,102830.77
2019-03-20T02:20:44.668Z,102833.91
2019-03-20T02:25:38.718Z,102830.91
2019-03-20T02:30:32.709Z,102846.29
2019-03-20T02:35:26.769Z,102836.77
2019-03-20T02:40:20.707Z,102835.35
2019-03-20T02:45:15.582Z,102843.22
2019-03-20T02:50:10.763Z,102848.36
2019-03-20T02:55:07.008Z,102836.44
2019-03-20T03:00:01.565Z,102838.23
2019-03-20T03:04:56.555Z,102832.55
2019-03-20T03:09:50.556Z,102825.06
2019-03-20T03:14:44.680Z,102825.88
2019-03-20T03:19:38.653Z,102832.03
2019-03-20T03:24:32.632Z,102830.31
2019-03-20T03:29:26.577Z,102833.86
2019-03-20T03:34:20.612Z,102826.45
2019-03-20T03:39:14.588Z,102836.59
2019-03-20T03:44:08.551Z,102838.37
2019-03-20T03:49:02.709Z,102837.92
2019-03-20T03:53:56.670Z,102844.08
2019-03-20T03:58:50.621Z,102855.94
2019-03-20T04:03:44.624Z,102864.27
2019-03-20T04:08:39.077Z,102865.67
2019-03-20T04:13:33.025Z,102867.55
2019-03-20T04:18:27.000Z,102866.53
2019-03-20T04:23:20.968Z,102863.91
2019-03-20T04:28:15.019Z,102871.28
2019-03-20T04:33:08.962Z,102870.92
2019-03-20T04:38:02.936Z,102861.39
2019-03-20T04:42:56.886Z,102872.80
2019-03-20T04:47:50.928Z,102871.83
2019-03-20T04:52:44.976Z,102882.68
2019-03-20T04:57:39.119Z,102880.96
2019-03-20T05:02:33.088Z,102868.71
2019-03-20T05:07:27.034Z,102875.21
2019-03-20T05:12:20.985Z,102876.42
2019-03-20T05:17:14.948Z,102874.70
2019-03-20T05:22:08.912Z,102873.34
2019-03-20T05:27:03.167Z,102878.19
2019-03-20T05:31:57.169Z,102881.66
2019-03-20T05:36:51.149Z,102883.73
2019-03-20T05:41:45.142Z,102895.98
2019-03-20T05:46:39.112Z,102895.42
2019-03-20T05:51:33.200Z,102903.48
2019-03-20T05:56:27.215Z,102907.58
2019-03-20T06:01:21.203Z,102898.66
2019-03-20T06:06:15.160Z,102914.75
2019-03-20T06:11:09.201Z,102914.11
2019-03-20T06:16:03.166Z,102921.06
2019-03-20T06:20:57.169Z,102931.95
2019-03-20T06:25:51.655Z,102932.22
2019-03-20T06:30:45.783Z,102935.45
2019-03-20T06:35:39.789Z,102934.38
2019-03-20T06:40:33.765Z,102934.13
2019-03-20T06:45:27.775Z,102943.66
2019-03-20T06:50:22.147Z,102954.89
2019-03-20T06:55:16.092Z,102949.87
2019-03-20T07:00:36.764Z,102943.09
2019-03-20T07:05:51.347Z,102943.09
2019-03-20T07:10:54.495Z,102951.77
2019-03-20T07:15:50.393Z,102952.36
2019-03-20T07:20:44.371Z,102960.25
2019-03-20T07:25:38.504Z,102965.05
2019-03-20T07:30:32.463Z,102971.25
2019-03-20T07:35:26.447Z,102972.37
2019-03-20T07:40:20.427Z,102974.25
2019-03-20T07:45:14.427Z,102974.16
2019-03-20T07:50:09.289Z,102978.17
2019-03-20T07:55:03.655Z,102970.95
2019-03-20T07:59:57.620Z,102989.03
2019-03-20T08:04:51.880Z,102986.63
2019-03-20T08:09:45.832Z,102981.94
2019-03-20T08:14:39.819Z,102988.44
2019-03-20T08:19:35.729Z,102993.45
2019-03-20T08:24:29.768Z,102997.03
2019-03-20T08:29:23.773Z,103007.11
2019-03-20T08:34:17.758Z,103013.14
2019-03-20T08:39:11.736Z,103016.73
2019-03-20T08:44:05.705Z,103018.19
2019-03-20T08:48:59.667Z,103027.93
2019-03-20T08:53:56.183Z,103026.87
2019-03-20T08:58:49.547Z,103030.06
2019-03-20T09:03:43.504Z,103026.53
2019-03-20T09:08:37.486Z,103032.14
2019-03-20T09:13:33.382Z,103032.94
2019-03-20T09:18:27.467Z,103035.53
2019-03-20T09:23:21.443Z,103037.18
2019-03-20T09:28:15.419Z,103036.25
2019-03-20T09:33:09.459Z,103035.30
2019-03-20T09:38:03.519Z,103040.50
2019-03-20T09:42:57.510Z,103043.61
2019-03-20T09:47:51.492Z,103049.25
2019-03-20T09:52:45.570Z,103038.27
2019-03-20T09:57:39.747Z,103040.22
2019-03-20T10:02:33.698Z,103040.75
2019-03-20T10:07:27.787Z,103040.09
2019-03-20T10:12:21.984Z,103029.02
2019-03-20T10:17:17.328Z,103026.31
2019-03-20T10:22:11.487Z,103030.55
2019-03-20T10:27:05.596Z,103022.84
2019-03-20T10:31:59.585Z,103034.78
2019-03-20T10:36:53.672Z,103030.69
2019-03-20T10:41:47.665Z,103034.53
2019-03-20T10:46:41.834Z,103039.33
2019-03-20T10:51:35.818Z,103035.23
2019-03-20T10:56:29.793Z,103030.55
2019-03-20T11:01:23.777Z,103022.77
2019-03-20T11:06:17.952Z,103020.70
2019-03-20T11:11:11.916Z,103018.50
2019-03-20T11:16:05.861Z,103017.67
2019-03-20T11:20:59.973Z,103014.06
2019-03-20T11:25:54.005Z,103012.64
2019-03-20T11:30:47.993Z,103017.97
2019-03-20T11:35:42.594Z,103011.03
2019-03-20T11:40:37.800Z,103014.86
2019-03-20T11:45:31.977Z,103012.52
2019-03-20T11:50:37.147Z,103003.68
2019-03-20T11:55:31.130Z,103003.95
2019-03-20T12:00:25.601Z,103002.77
2019-03-20T12:05:19.792Z,103010.16
2019-03-20T12:10:23.417Z,103013.95
2019-03-20T12:15:17.647Z,103006.43
2019-03-20T12:20:17.216Z,103000.01
2019-03-20T12:25:17.108Z,102993.82
2019-03-20T12:30:14.006Z,102989.55
2019-03-20T12:35:10.929Z,102993.42
2019-03-20T12:40:14.527Z,102998.52
2019-03-20T12:45:12.249Z,102999.76
2019-03-20T12:50:10.239Z,102992.20
2019-03-20T12:55:07.760Z,102984.00
2019-03-20T13:00:05.579Z,102987.73
2019-03-20T13:04:59.780Z,102988.91
2019-03-20T13:09:56.166Z,102986.85
2019-03-20T13:14:49.665Z,102982.41
2019-03-20T13:19:43.862Z,102990.09
2019-03-20T13:24:37.838Z,102977.75
2019-03-20T13:29:31.824Z,102965.91
2019-03-20T13:34:25.837Z,102973.04
2019-03-20T13:39:19.836Z,102971.12
2019-03-20T13:44:13.806Z,102966.61
2019-03-20T13:49:07.785Z,102968.06
2019-03-20T13:54:01.820Z,102959.94
2019-03-20T13:58:55.797Z,102966.52
2019-03-20T14:03:49.894Z,102959.63
2019-03-20T14:08:43.868Z,102967.70
2019-03-20T14:13:37.847Z,102971.63
2019-03-20T14:18:31.845Z,102976.19
2019-03-20T14:23:26.007Z,102974.35
2019-03-20T14:28:20.165Z,102962.52
2019-03-20T14:33:14.214Z,102971.55
2019-03-20T14:38:08.199Z,102973.98
2019-03-20T14:43:02.337Z,102969.17
2019-03-20T14:47:56.541Z,102973.84
2019-03-20T14:52:50.734Z,102974.50
2019-03-20T14:57:44.819Z,102964.06
2019-03-20T15:02:38.920Z,102960.45
2019-03-20T15:07:32.890Z,102958.67
2019-03-20T15:12:26.989Z,102953.80
2019-03-20T15:17:20.980Z,102956.38
2019-03-20T15:22:15.046Z,102948.94
2019-03-20T15:27:09.021Z,102945.25
2019-03-20T15:32:03.454Z,102949.80
2019-03-20T15:36:57.466Z,102951.39
2019-03-20T15:41:51.454Z,102950.06
2019-03-20T15:46:45.441Z,102950.88
2019-03-20T15:51:39.436Z,102946.16
2019-03-20T15:56:33.401Z,102943.23
2019-03-20T16:01:27.432Z,102937.16
2019-03-20T16:06:21.642Z,102935.05
2019-03-20T16:11:15.725Z,102939.37
2019-03-20T16:16:09.843Z,102936.55
2019-03-20T16:21:03.847Z,102935.21
2019-03-20T16:25:57.852Z,102939.64
2019-03-20T16:30:51.836Z,102935.98
2019-03-20T16:35:45.846Z,102926.02
2019-03-20T16:40:39.828Z,102922.16
2019-03-20T16:45:36.123Z,102938.46
2019-03-20T16:50:30.093Z,102932.58
2019-03-20T16:55:24.207Z,102949.08
2019-03-20T17:00:20.210Z,102949.67
2019-03-20T17:05:14.469Z,102955.09
2019-03-20T17:10:15.217Z,102959.32
2019-03-20T17:15:12.993Z,102958.53
2019-03-20T17:20:07.276Z,102956.52
2019-03-20T17:25:01.393Z,102960.02
2019-03-20T17:29:55.358Z,102951.02
2019-03-20T17:34:49.429Z,102960.04
2019-03-20T17:39:43.428Z,102968.64
2019-03-20T17:44:37.405Z,102966.30
2019-03-20T17:49:31.369Z,102967.97
2019-03-20T17:54:25.459Z,102973.81
2019-03-20T17:59:19.496Z,102984.07
2019-03-20T18:04:13.973Z,102979.66
2019-03-20T18:09:08.170Z,102975.66
2019-03-20T18:14:02.201Z,102980.80
2019-03-20T18:18:56.297Z,102984.35
2019-03-20T18:23:50.604Z,102988.34
2019-03-20T18:28:44.728Z,102997.66
2019-03-20T18:33:38.804Z,103002.11
2019-03-20T18:38:32.951Z,103013.02
2019-03-20T18:43:26.953Z,103007.77
2019-03-20T18:48:20.990Z,103015.08
2019-03-20T18:53:15.090Z,103018.53
2019-03-20T18:58:09.284Z,103018.61
2019-03-20T19:03:19.017Z,103023.26
2019-03-20T19:08:13.185Z,103027.91
2019-03-20T19:13:07.496Z,103033.69
2019-03-20T19:18:01.634Z,103039.53
2019-03-20T19:22:55.943Z,103045.20
2019-03-20T19:27:49.987Z,103043.44
2019-03-20T19:32:43.990Z,103049.27
2019-03-20T19:37:38.262Z,103048.06
2019-03-20T19:42:32.249Z,103051.18
2019-03-20T19:47:26.451Z,103054.00
2019-03-20T19:52:20.830Z,103056.08
2019-03-20T19:57:15.109Z,103060.63
2019-03-20T20:02:09.468Z,103057.76
2019-03-20T20:07:03.571Z,103058.94
2019-03-20T20:11:57.664Z,103064.86
2019-03-20T20:16:51.745Z,103064.99
2019-03-20T20:21:45.857Z,103071.23
2019-03-20T20:26:40.010Z,103064.61
2019-03-20T20:31:34.130Z,103065.40
2019-03-20T20:36:28.241Z,103069.75
2019-03-20T20:41:22.491Z,103072.38
2019-03-20T20:46:16.589Z,103068.70
2019-03-20T20:51:10.576Z,103072.11
2019-03-20T20:56:04.592Z,103063.56
2019-03-20T21:00:59.006Z,103053.30
2019-03-20T21:05:53.024Z,103055.73
2019-03-20T21:10:47.043Z,103060.44
2019-03-20T21:15:43.431Z,103058.97
2019-03-20T21:20:37.436Z,103063.64
2019-03-20T21:25:31.412Z,103069.63
2019-03-20T21:30:38.205Z,103064.14
2019-03-20T21:36:08.533Z,103063.16
2019-03-20T21:41:09.062Z,103059.02
2019-03-20T21:46:33.087Z,103061.45
2019-03-20T21:51:27.281Z,103069.94
2019-03-20T21:56:31.136Z,103067.16
2019-03-20T22:01:46.826Z,103062.15
2019-03-20T22:07:06.594Z,103071.92
2019-03-20T22:12:16.689Z,103074.28
2019-03-20T22:17:26.470Z,103075.29
2019-03-20T22:22:33.195Z,103067.52
2019-03-20T22:27:36.903Z,103078.20
2019-03-20T22:33:07.921Z,103068.30
2019-03-20T22:38:05.429Z,103069.34
2019-03-20T22:43:29.470Z,103073.19
2019-03-20T22:48:38.024Z,103070.60
2019-03-20T22:53:41.625Z,103072.66
2019-03-20T22:58:42.159Z,103073.31
2019-03-20T23:04:00.054Z,103083.94
2019-03-20T23:08:54.021Z,103077.97
2019-03-20T23:13:48.714Z,103082.49
2019-03-20T23:18:42.686Z,103081.30
2019-03-20T23:23:37.487Z,103080.04
2019-03-20T23:28:31.459Z,103073.06
2019-03-20T23:33:25.459Z,103074.95
2019-03-20T23:38:19.438Z,103070.69
2019-03-20T23:43:13.409Z,103076.63
2019-03-20T23:48:19.600Z,103083.21
2019-03-20T23:53:13.522Z,103082.83
2019-03-20T23:58:07.490Z,103084.55
